»·PEaware :: N572PC KBZN-KMSO

N572PC :: KBZN-KMSO

FLIGHT INFORMATION

Flight Status: Arrived
Operator: Privately registered:
United States
More flights under this callsign
Pilot: Christopher J. (304)
Aircraft: PILATUS PC-12 EAGLE
(PC12)
More flights by this aircraft type
Origin: KBZN Gallatin
United States
Destination: KMSO Missoula Intl
United States
More flights between these airports :: More routes between these airports
Route: +HIA5 HIA V86 MSO
File this flight plan on PilotEdge
Remarks:
Altitude:
(Current/Filed)
22,000ft
Speed:
(Current/Filed)
285kts
Departed: 16-Oct-19 03:52 PM
Arrived: 16-Oct-19 04:41 PM
Distance/Time
Traveled:
140nm/0:49
Distance/Time
To Go:
Arrived

Flight Plot

Page will automatically refresh every two minutes.

Flight plan parsing failed; only flown route is shown


Map Options




Map Legend


Flown Route
Filed Route
Departure Airport
Arrival Airport
Navaid (VOR, NDB)
Fix

Horizontal Profiles

Position Reports

Time Latitude Longitude Heading Altitude Ground
Speed
16-Oct-19 15:20 45.772873 -111.152011 318 4475ft 0kts
16-Oct-19 15:21 45.772873 -111.152011 318 4475ft 0kts
16-Oct-19 15:22 45.772873 -111.152011 318 4475ft 0kts
16-Oct-19 15:23 45.772873 -111.152011 318 4475ft 0kts
16-Oct-19 15:24 45.772873 -111.152011 318 4475ft 0kts
16-Oct-19 15:25 45.772873 -111.152011 318 4475ft 0kts
16-Oct-19 15:26 45.772873 -111.152011 318 4475ft 0kts
16-Oct-19 15:27 45.772873 -111.152011 318 4475ft 0kts
16-Oct-19 15:28 45.772873 -111.152011 318 4475ft 0kts
16-Oct-19 15:29 45.772873 -111.152011 318 4475ft 0kts
16-Oct-19 15:30 45.772873 -111.152011 318 4475ft 0kts
16-Oct-19 15:31 45.772873 -111.152011 318 4475ft 0kts
16-Oct-19 15:32 45.772873 -111.152011 318 4475ft 0kts
16-Oct-19 15:33 45.772873 -111.152011 318 4475ft 0kts
16-Oct-19 15:34 45.772873 -111.152011 318 4475ft 0kts
16-Oct-19 15:35 45.772873 -111.152011 318 4475ft 0kts
16-Oct-19 15:36 45.772873 -111.152011 318 4475ft 0kts
16-Oct-19 15:37 45.772873 -111.152011 318 4475ft 0kts
16-Oct-19 15:38 45.772873 -111.152011 318 4475ft 0kts
16-Oct-19 15:39 45.774164 -111.152584 344 4475ft 13kts
16-Oct-19 15:40 45.778253 -111.157057 312 4475ft 22kts
16-Oct-19 15:41 45.780512 -111.160154 314 4475ft 13kts
16-Oct-19 15:42 45.784258 -111.165369 314 4475ft 22kts
16-Oct-19 15:43 45.786395 -111.168284 336 4475ft 10kts
16-Oct-19 15:44 45.786975 -111.168037 36 4475ft 0kts
16-Oct-19 15:45 45.786975 -111.168037 36 4475ft 0kts
16-Oct-19 15:46 45.786975 -111.168037 36 4475ft 0kts
16-Oct-19 15:47 45.786975 -111.168037 36 4475ft 0kts
16-Oct-19 15:48 45.786975 -111.168037 36 4475ft 0kts
16-Oct-19 15:49 45.786975 -111.168037 36 4475ft 0kts
16-Oct-19 15:50 45.786805 -111.164759 137 4475ft 22kts
16-Oct-19 15:51 45.771483 -111.141302 131 4989ft 134kts
16-Oct-19 15:52 45.739240 -111.126043 238 6294ft 146kts
16-Oct-19 15:53 45.743097 -111.184499 276 7805ft 151kts
16-Oct-19 15:54 45.746921 -111.243165 276 9307ft 149kts
16-Oct-19 15:55 45.742102 -111.294061 233 10836ft 141kts
16-Oct-19 15:56 45.715572 -111.334573 224 12338ft 141kts
16-Oct-19 15:57 45.693941 -111.381155 242 13835ft 145kts
16-Oct-19 15:58 45.675048 -111.432129 243 15327ft 145kts
16-Oct-19 15:59 45.668870 -111.486284 281 16816ft 148kts
16-Oct-19 16:00 45.684060 -111.543382 285 18153ft 170kts
16-Oct-19 16:01 45.703706 -111.611844 286 19458ft 197kts
16-Oct-19 16:02 45.725039 -111.686279 285 20763ft 204kts
16-Oct-19 16:03 45.746369 -111.761070 285 22000ft 207kts
16-Oct-19 16:04 45.770038 -111.844453 286 22062ft 238kts
16-Oct-19 16:05 45.795412 -111.934100 286 22039ft 245kts
16-Oct-19 16:06 45.820946 -112.024582 286 22020ft 246kts
16-Oct-19 16:07 45.846849 -112.115964 284 22001ft 247kts
16-Oct-19 16:08 45.872922 -112.207204 285 22000ft 246kts
16-Oct-19 16:09 45.899422 -112.296555 285 21999ft 242kts
16-Oct-19 16:10 45.925643 -112.385228 285 21999ft 241kts
16-Oct-19 16:11 45.951764 -112.473815 285 21998ft 240kts
16-Oct-19 16:12 45.977710 -112.562109 285 21998ft 240kts
16-Oct-19 16:13 46.003664 -112.650779 284 21997ft 240kts
16-Oct-19 16:15 46.029717 -112.739133 291 22001ft 244kts
16-Oct-19 16:16 46.076977 -112.814234 304 22004ft 254kts
16-Oct-19 16:17 46.125936 -112.887149 303 21998ft 255kts
16-Oct-19 16:18 46.175392 -112.960900 303 21997ft 257kts
16-Oct-19 16:19 46.225211 -113.035432 303 21917ft 262kts
16-Oct-19 16:20 46.277861 -113.114566 304 21105ft 280kts
16-Oct-19 16:21 46.332424 -113.196522 304 20288ft 285kts
16-Oct-19 16:22 46.387400 -113.279433 304 19468ft 285kts
16-Oct-19 16:23 46.442169 -113.362305 305 18650ft 285kts
16-Oct-19 16:24 46.496875 -113.445352 305 17831ft 284kts
16-Oct-19 16:25 46.551258 -113.528170 305 17014ft 284kts
16-Oct-19 16:26 46.605605 -113.611076 306 16196ft 283kts
16-Oct-19 16:27 46.659785 -113.694084 305 15395ft 282kts
16-Oct-19 16:28 46.712815 -113.775554 306 14256ft 273kts
16-Oct-19 16:29 46.777029 -113.821141 19 13079ft 300kts
16-Oct-19 16:30 46.849517 -113.770004 23 11644ft 274kts
16-Oct-19 16:31 46.900724 -113.699203 9 10189ft 251kts
16-Oct-19 16:32 46.922158 -113.750772 221 9434ft 194kts
16-Oct-19 16:32 46.880069 -113.763522 188 9091ft 187kts
16-Oct-19 16:34 46.832725 -113.810538 252 7782ft 194kts
16-Oct-19 16:35 46.818802 -113.876396 251 7627ft 161kts
16-Oct-19 16:35 46.821229 -113.929423 299 6832ft 159kts
16-Oct-19 16:36 46.844542 -113.974099 310 4954ft 123kts
16-Oct-19 16:38 46.870739 -114.015903 309 4360ft 117kts
16-Oct-19 16:39 46.891863 -114.051612 308 3751ft 109kts
16-Oct-19 16:39 46.906184 -114.074960 310 3310ft 86kts
16-Oct-19 16:40 46.916111 -114.091662 311 3210ft 36kts

Navigation Log

Ident Type
Flight plan parsing failed, navigation log unavailable